Time;durP1;ratioP1;P1;durP2;ratioP2;P2;SDS_P1;SDS_P2;PMS_P1;PMS_P2;Temp;Humidity;BMP_temperature;BMP_pressure;BME280_temperature;BME280_humidity;BME280_pressure;Samples;Min_cycle;Max_cycle;Signal;HPM_P1;HPM_P2
2023/01/30 00:02:06;;;;;;;9.88;3.90;;;;;;;;;;5092509;28;20116;-39
2023/01/30 00:04:31;;;;;;;9.70;4.97;;;;;;;;;;5093800;28;20513;-39
2023/01/30 00:06:57;;;;;;;6.80;4.30;;;;;;;;;;5093556;28;20024;-39
2023/01/30 00:09:22;;;;;;;5.38;3.75;;;;;;;;;;5093996;28;20028;-40
2023/01/30 00:11:47;;;;;;;7.75;4.55;;;;;;;;;;5091904;28;20107;-39
2023/01/30 00:14:13;;;;;;;11.65;4.70;;;;;;;;;;5092189;28;20093;-39
2023/01/30 00:16:38;;;;;;;8.50;4.13;;;;;;;;;;5093512;28;20035;-39
2023/01/30 00:19:04;;;;;;;10.70;5.68;;;;;;;;;;5093799;28;20020;-39
2023/01/30 00:21:30;;;;;;;11.60;5.57;;;;;;;;;;5093775;28;20126;-39
2023/01/30 00:23:55;;;;;;;6.63;3.95;;;;;;;;;;5093486;28;20158;-39
2023/01/30 00:26:20;;;;;;;15.60;5.97;;;;;;;;;;5093582;28;20020;-39
2023/01/30 00:28:46;;;;;;;11.95;5.03;;;;;;;;;;5093321;28;20173;-39
2023/01/30 00:31:11;;;;;;;5.90;3.97;;;;;;;;;;5093520;28;20110;-39
2023/01/30 00:33:37;;;;;;;10.70;5.25;;;;;;;;;;5093044;28;20038;-39
2023/01/30 00:36:03;;;;;;;12.15;5.03;;;;;;;;;;5093168;28;20395;-40
2023/01/30 00:38:28;;;;;;;8.38;3.95;;;;;;;;;;5093190;28;20061;-39
2023/01/30 00:40:53;;;;;;;7.50;4.68;;;;;;;;;;5092994;28;20477;-39
2023/01/30 00:48:49;;;;;;;10.00;5.32;;;;;;;;;;5091556;28;20050;-39
2023/01/30 00:51:14;;;;;;;12.02;4.85;;;;;;;;;;5093235;28;20024;-39
2023/01/30 00:53:40;;;;;;;11.18;5.45;;;;;;;;;;5091502;28;20111;-39
2023/01/30 00:56:05;;;;;;;11.48;5.00;;;;;;;;;;5091382;28;20020;-39
2023/01/30 00:58:32;;;;;;;14.65;4.57;;;;;;;;;;5093023;28;20032;-39
2023/01/30 01:00:58;;;;;;;8.57;4.93;;;;;;;;;;5091172;28;20081;-39
2023/01/30 01:03:23;;;;;;;8.20;4.80;;;;;;;;;;5092923;28;20047;-39
2023/01/30 01:05:48;;;;;;;15.85;4.25;;;;;;;;;;5092554;28;20062;-39
2023/01/30 01:08:14;;;;;;;12.32;5.25;;;;;;;;;;5092630;28;20028;-39
2023/01/30 01:10:39;;;;;;;9.77;4.45;;;;;;;;;;5091117;28;20035;-39
2023/01/30 01:13:05;;;;;;;1.83;1.63;;;;;;;;;;5092461;28;20123;-39
2023/01/30 01:15:31;;;;;;;9.90;3.60;;;;;;;;;;5091128;28;20359;-39
2023/01/30 01:17:58;;;;;;;10.82;4.72;;;;;;;;;;5090893;28;20064;-38
2023/01/30 01:20:25;;;;;;;8.23;3.88;;;;;;;;;;5091276;28;20462;-39
2023/01/30 01:22:54;;;;;;;8.75;4.15;;;;;;;;;;5090745;28;20093;-39
2023/01/30 01:25:20;;;;;;;7.70;3.83;;;;;;;;;;5090436;28;20086;-39
2023/01/30 01:27:45;;;;;;;11.70;5.57;;;;;;;;;;5090803;28;20024;-39
2023/01/30 01:30:11;;;;;;;7.88;4.32;;;;;;;;;;5092419;28;20081;-39
2023/01/30 01:32:36;;;;;;;7.13;3.65;;;;;;;;;;5090726;28;20044;-39
2023/01/30 01:35:02;;;;;;;7.60;4.53;;;;;;;;;;5090932;28;20024;-39
2023/01/30 01:37:27;;;;;;;9.77;4.30;;;;;;;;;;5091954;28;20469;-39
2023/01/30 01:42:37;;;;;;;12.88;4.82;;;;;;;;;;5090556;28;20027;-39
2023/01/30 01:45:15;;;;;;;9.98;4.32;;;;;;;;;;5092478;28;20398;-39
2023/01/30 01:47:47;;;;;;;10.65;5.22;;;;;;;;;;5090554;28;20107;-39
2023/01/30 01:50:15;;;;;;;7.78;4.35;;;;;;;;;;5091914;28;20035;-39
2023/01/30 01:52:42;;;;;;;8.20;4.47;;;;;;;;;;5090295;28;20042;-39
2023/01/30 01:55:08;;;;;;;8.82;4.32;;;;;;;;;;5090538;28;20481;-39
2023/01/30 01:57:35;;;;;;;8.50;3.97;;;;;;;;;;5090324;28;20425;-39
2023/01/30 02:00:04;;;;;;;9.57;5.43;;;;;;;;;;5090382;28;20059;-39
2023/01/30 02:02:42;;;;;;;8.23;4.55;;;;;;;;;;5091512;28;20051;-39
2023/01/30 02:05:10;;;;;;;12.13;5.80;;;;;;;;;;5091700;28;20084;-39
2023/01/30 02:07:41;;;;;;;13.27;5.45;;;;;;;;;;5090251;28;20016;-40
2023/01/30 02:10:09;;;;;;;10.43;4.18;;;;;;;;;;5090387;28;20035;-39
2023/01/30 02:12:35;;;;;;;10.32;4.45;;;;;;;;;;5090231;28;20428;-39
2023/01/30 02:15:01;;;;;;;11.75;5.80;;;;;;;;;;5090445;28;20070;-39
2023/01/30 02:17:27;;;;;;;8.70;5.22;;;;;;;;;;5134508;22;20050;-38
2023/01/30 02:20:15;;;;;;;8.77;4.28;;;;;;;;;;5043512;28;20034;-38
2023/01/30 02:22:54;;;;;;;7.03;3.83;;;;;;;;;;5011668;28;20037;-38
2023/01/30 02:25:30;;;;;;;8.68;5.70;;;;;;;;;;5010328;28;20379;-37
2023/01/30 02:28:04;;;;;;;11.02;5.85;;;;;;;;;;5043323;28;20032;-37
2023/01/30 02:30:49;;;;;;;11.10;5.15;;;;;;;;;;5043192;28;20047;-37
2023/01/30 02:33:18;;;;;;;8.80;4.53;;;;;;;;;;5011751;28;20041;-37
2023/01/30 02:35:59;;;;;;;10.55;4.75;;;;;;;;;;5013970;28;20041;-37
2023/01/30 02:38:27;;;;;;;10.68;4.20;;;;;;;;;;5047134;28;20033;-40
2023/01/30 02:41:01;;;;;;;15.95;6.63;;;;;;;;;;5014434;28;20489;-40
2023/01/30 02:43:31;;;;;;;11.88;5.43;;;;;;;;;;5030809;28;20056;-40
2023/01/30 02:45:57;;;;;;;8.35;4.45;;;;;;;;;;5030667;28;20487;-40
2023/01/30 02:48:26;;;;;;;4.72;3.33;;;;;;;;;;5015796;28;20083;-40
2023/01/30 02:50:57;;;;;;;10.00;5.70;;;;;;;;;;5047103;28;20483;-40
2023/01/30 02:53:23;;;;;;;7.18;4.45;;;;;;;;;;5046918;28;20415;-40
2023/01/30 02:55:48;;;;;;;7.72;4.80;;;;;;;;;;5015646;28;20037;-40
2023/01/30 02:58:15;;;;;;;6.90;4.25;;;;;;;;;;5047280;28;20499;-40
2023/01/30 03:01:02;;;;;;;14.63;6.70;;;;;;;;;;5047305;28;20022;-40
2023/01/30 03:03:28;;;;;;;8.38;4.07;;;;;;;;;;5030766;28;20114;-40
2023/01/30 03:06:07;;;;;;;11.55;4.75;;;;;;;;;;5015716;28;20483;-40
2023/01/30 03:08:49;;;;;;;10.93;4.95;;;;;;;;;;5047115;28;20029;-40
2023/01/30 03:11:15;;;;;;;7.47;4.38;;;;;;;;;;5015274;28;20034;-40
2023/01/30 03:13:51;;;;;;;11.82;5.47;;;;;;;;;;5046987;28;20068;-40
2023/01/30 03:16:22;;;;;;;7.22;3.88;;;;;;;;;;5020701;28;20048;-40
2023/01/30 03:18:48;;;;;;;8.95;3.83;;;;;;;;;;5034901;28;20038;-41
2023/01/30 03:21:15;;;;;;;14.52;6.32;;;;;;;;;;5066869;28;20398;-40
2023/01/30 03:23:43;;;;;;;15.55;5.00;;;;;;;;;;5035280;28;20108;-40
2023/01/30 03:26:12;;;;;;;8.80;4.03;;;;;;;;;;5035089;28;20025;-40
2023/01/30 03:28:39;;;;;;;9.38;4.00;;;;;;;;;;5066832;28;20032;-40
2023/01/30 03:31:04;;;;;;;9.43;4.80;;;;;;;;;;5033425;28;20021;-40
2023/01/30 03:33:30;;;;;;;8.27;6.05;;;;;;;;;;5066624;28;20041;-40
2023/01/30 03:35:55;;;;;;;7.43;4.45;;;;;;;;;;5049926;28;20116;-40
2023/01/30 03:38:22;;;;;;;11.90;4.47;;;;;;;;;;5034570;28;20060;-40
2023/01/30 03:40:49;;;;;;;10.15;5.00;;;;;;;;;;5033331;28;20116;-40
2023/01/30 03:43:14;;;;;;;8.35;5.40;;;;;;;;;;5033186;28;20112;-40
2023/01/30 03:45:40;;;;;;;9.20;4.75;;;;;;;;;;5033210;28;20040;-40
2023/01/30 03:48:06;;;;;;;12.88;6.50;;;;;;;;;;5015961;28;20423;-39
2023/01/30 03:50:31;;;;;;;9.48;5.25;;;;;;;;;;5032970;28;20044;-39
2023/01/30 03:52:58;;;;;;;9.63;4.85;;;;;;;;;;5066348;28;20068;-40
2023/01/30 03:55:24;;;;;;;6.85;5.03;;;;;;;;;;5033000;28;20045;-40
2023/01/30 03:57:53;;;;;;;10.25;6.50;;;;;;;;;;5032946;28;20022;-40
2023/01/30 04:00:19;;;;;;;7.10;4.80;;;;;;;;;;5034254;28;20059;-40
2023/01/30 04:02:48;;;;;;;7.53;4.65;;;;;;;;;;5034406;28;20033;-39
2023/01/30 04:05:15;;;;;;;10.30;4.40;;;;;;;;;;5034358;28;20052;-40
2023/01/30 04:07:47;;;;;;;13.90;5.38;;;;;;;;;;5032802;28;20025;-40
2023/01/30 04:10:14;;;;;;;11.00;5.10;;;;;;;;;;5032760;28;20056;-40
2023/01/30 04:12:42;;;;;;;10.20;4.20;;;;;;;;;;5066031;28;20060;-40
2023/01/30 04:15:09;;;;;;;8.00;5.15;;;;;;;;;;5066077;28;20497;-40
2023/01/30 04:17:47;;;;;;;8.23;4.75;;;;;;;;;;5048995;28;20057;-40
2023/01/30 04:20:30;;;;;;;10.77;4.38;;;;;;;;;;5034124;28;20060;-40
2023/01/30 04:22:56;;;;;;;13.85;5.82;;;;;;;;;;5032604;28;20565;-39
2023/01/30 04:25:24;;;;;;;7.60;4.05;;;;;;;;;;5032368;28;20025;-40
2023/01/30 04:27:49;;;;;;;8.57;4.13;;;;;;;;;;5033978;28;20037;-40
2023/01/30 04:30:19;;;;;;;7.32;4.88;;;;;;;;;;5032372;28;20103;-39
2023/01/30 04:32:46;;;;;;;13.40;5.30;;;;;;;;;;5032174;28;20068;-40
2023/01/30 04:35:11;;;;;;;10.13;4.70;;;;;;;;;;5032299;28;20045;-40
2023/01/30 04:37:38;;;;;;;7.72;4.32;;;;;;;;;;5048810;28;20040;-40
2023/01/30 04:40:04;;;;;;;6.53;5.20;;;;;;;;;;5032130;28;20017;-39
2023/01/30 04:42:30;;;;;;;6.90;3.90;;;;;;;;;;5032149;28;20037;-40
2023/01/30 04:45:15;;;;;;;8.80;4.13;;;;;;;;;;5034011;28;20044;-40
2023/01/30 04:47:41;;;;;;;7.63;3.67;;;;;;;;;;5031977;28;20029;-40
2023/01/30 04:50:07;;;;;;;11.02;6.40;;;;;;;;;;5032052;28;20017;-39
2023/01/30 04:52:33;;;;;;;9.48;4.07;;;;;;;;;;5031770;28;20037;-40
2023/01/30 04:54:58;;;;;;;9.05;4.70;;;;;;;;;;5033188;28;20486;-39
2023/01/30 04:57:24;;;;;;;9.40;3.60;;;;;;;;;;5065006;28;20047;-40
2023/01/30 04:59:49;;;;;;;9.45;4.72;;;;;;;;;;5031812;28;20079;-39
2023/01/30 05:02:16;;;;;;;8.70;5.22;;;;;;;;;;5064937;28;20066;-39
2023/01/30 05:04:42;;;;;;;7.95;4.45;;;;;;;;;;5033091;28;20057;-45
2023/01/30 05:07:08;;;;;;;5.60;3.97;;;;;;;;;;5032912;28;20033;-39
2023/01/30 05:09:33;;;;;;;11.45;4.53;;;;;;;;;;5032815;28;20040;-39
2023/01/30 05:11:58;;;;;;;9.25;5.55;;;;;;;;;;5033145;28;20021;-40
2023/01/30 05:14:24;;;;;;;9.95;3.97;;;;;;;;;;5032914;28;20091;-40
2023/01/30 05:16:49;;;;;;;9.93;5.10;;;;;;;;;;5064827;28;20033;-39
2023/01/30 05:19:15;;;;;;;10.52;5.85;;;;;;;;;;5032526;28;20053;-39
2023/01/30 05:21:40;;;;;;;11.43;4.53;;;;;;;;;;5032699;28;20067;-39
2023/01/30 05:24:05;;;;;;;11.80;4.75;;;;;;;;;;5032938;28;20025;-37
2023/01/30 05:26:31;;;;;;;9.98;5.20;;;;;;;;;;5032794;28;20456;-37
2023/01/30 05:28:57;;;;;;;11.80;5.20;;;;;;;;;;5032724;28;20025;-37
2023/01/30 05:31:22;;;;;;;14.05;4.18;;;;;;;;;;5032750;28;20033;-37
2023/01/30 05:33:49;;;;;;;9.30;5.28;;;;;;;;;;5032420;28;20085;-37
2023/01/30 05:36:15;;;;;;;8.77;4.90;;;;;;;;;;5032316;28;20121;-37
2023/01/30 05:38:43;;;;;;;15.88;4.88;;;;;;;;;;5032433;28;20033;-37
2023/01/30 05:41:09;;;;;;;12.15;5.50;;;;;;;;;;5032353;28;20033;-37
2023/01/30 05:43:35;;;;;;;8.93;4.15;;;;;;;;;;5032188;28;20030;-37
2023/01/30 05:46:01;;;;;;;5.47;3.80;;;;;;;;;;5032332;28;20108;-37
2023/01/30 05:48:27;;;;;;;6.72;3.85;;;;;;;;;;5032439;28;20105;-38
2023/01/30 05:50:54;;;;;;;10.80;5.03;;;;;;;;;;5031244;28;20098;-37
2023/01/30 05:53:20;;;;;;;10.32;4.63;;;;;;;;;;5030907;28;20112;-37
2023/01/30 05:55:46;;;;;;;7.00;3.88;;;;;;;;;;5032162;28;20033;-37
2023/01/30 05:58:11;;;;;;;7.95;4.15;;;;;;;;;;5032016;28;20079;-38
2023/01/30 06:00:37;;;;;;;16.27;5.38;;;;;;;;;;5032001;28;20475;-37
2023/01/30 06:03:03;;;;;;;8.27;4.68;;;;;;;;;;5032122;28;20033;-37
2023/01/30 06:05:29;;;;;;;11.05;4.93;;;;;;;;;;5031923;28;20029;-37
2023/01/30 06:07:55;;;;;;;10.70;4.65;;;;;;;;;;5031817;28;20055;-37
2023/01/30 06:10:20;;;;;;;12.52;5.43;;;;;;;;;;5031661;28;20030;-37
2023/01/30 06:12:46;;;;;;;11.55;4.85;;;;;;;;;;5031817;28;20029;-38
2023/01/30 06:15:11;;;;;;;12.10;4.85;;;;;;;;;;5031939;28;20033;-37
2023/01/30 06:17:41;;;;;;;7.40;3.58;;;;;;;;;;5031686;28;20052;-40
2023/01/30 06:20:06;;;;;;;11.57;5.07;;;;;;;;;;5031563;28;20471;-39
2023/01/30 06:22:31;;;;;;;7.03;5.15;;;;;;;;;;5031670;28;20040;-39
2023/01/30 06:24:57;;;;;;;7.78;4.68;;;;;;;;;;5031865;28;20025;-39
2023/01/30 06:27:22;;;;;;;6.95;3.50;;;;;;;;;;5031650;28;20028;-40
2023/01/30 06:29:48;;;;;;;8.82;4.88;;;;;;;;;;5032099;28;20033;-39
2023/01/30 06:32:14;;;;;;;10.50;4.82;;;;;;;;;;5031634;28;20025;-39
2023/01/30 06:34:40;;;;;;;14.60;6.00;;;;;;;;;;5031675;28;20045;-39
2023/01/30 06:37:05;;;;;;;6.80;3.85;;;;;;;;;;5030474;28;20021;-39
2023/01/30 06:39:30;;;;;;;7.78;5.15;;;;;;;;;;5031462;28;20041;-39
2023/01/30 06:41:56;;;;;;;10.02;5.80;;;;;;;;;;5031661;28;20056;-40
2023/01/30 06:44:21;;;;;;;10.00;4.63;;;;;;;;;;5031826;28;20425;-39
2023/01/30 06:46:47;;;;;;;8.80;4.38;;;;;;;;;;5063429;28;20426;-39
2023/01/30 06:49:12;;;;;;;10.73;4.43;;;;;;;;;;5031650;28;20029;-39
2023/01/30 06:51:37;;;;;;;9.57;5.00;;;;;;;;;;5031483;28;20051;-39
2023/01/30 06:54:03;;;;;;;6.68;3.60;;;;;;;;;;5031489;28;20037;-39
2023/01/30 06:56:28;;;;;;;9.73;3.70;;;;;;;;;;5030305;28;20022;-39
2023/01/30 06:58:54;;;;;;;4.50;3.53;;;;;;;;;;5031479;28;20053;-39
2023/01/30 07:01:20;;;;;;;10.77;5.10;;;;;;;;;;5031412;28;20017;-39
2023/01/30 07:03:46;;;;;;;7.15;3.47;;;;;;;;;;5031516;28;20570;-39
2023/01/30 07:06:11;;;;;;;6.65;3.55;;;;;;;;;;5031745;28;20021;-39
2023/01/30 07:08:37;;;;;;;5.55;3.90;;;;;;;;;;5031252;28;20064;-40
2023/01/30 07:11:03;;;;;;;11.63;5.05;;;;;;;;;;5031507;28;20021;-39
2023/01/30 07:13:29;;;;;;;8.23;3.75;;;;;;;;;;5031304;28;20045;-39
2023/01/30 07:15:54;;;;;;;8.02;3.80;;;;;;;;;;5031296;28;20025;-39
2023/01/30 07:18:20;;;;;;;8.65;4.15;;;;;;;;;;5031090;28;20053;-39
2023/01/30 07:20:46;;;;;;;6.63;3.00;;;;;;;;;;5031357;28;20037;-39
2023/01/30 07:23:11;;;;;;;7.10;4.50;;;;;;;;;;5033937;28;20079;-40
2023/01/30 07:25:37;;;;;;;5.78;3.92;;;;;;;;;;5034819;28;20017;-39
2023/01/30 07:28:02;;;;;;;6.97;4.63;;;;;;;;;;5035107;28;20180;-39
2023/01/30 07:30:29;;;;;;;7.28;4.40;;;;;;;;;;5034900;28;20025;-39
2023/01/30 07:32:56;;;;;;;15.43;6.32;;;;;;;;;;5035003;28;20120;-39
2023/01/30 07:35:22;;;;;;;10.13;4.25;;;;;;;;;;5034940;28;20025;-39
2023/01/30 07:37:47;;;;;;;10.60;3.40;;;;;;;;;;5034656;28;20506;-39
2023/01/30 07:40:13;;;;;;;6.28;4.60;;;;;;;;;;5034678;28;20029;-39
2023/01/30 07:42:39;;;;;;;8.38;4.28;;;;;;;;;;5034536;28;20057;-40
2023/01/30 07:45:04;;;;;;;14.20;5.13;;;;;;;;;;5034741;28;20475;-39
2023/01/30 07:47:30;;;;;;;11.80;5.13;;;;;;;;;;5034410;28;20080;-39
2023/01/30 07:49:55;;;;;;;9.07;5.53;;;;;;;;;;5034451;28;20375;-39
2023/01/30 07:52:21;;;;;;;13.23;5.40;;;;;;;;;;5034192;28;20111;-39
2023/01/30 07:54:46;;;;;;;9.13;5.20;;;;;;;;;;5034409;28;20037;-39
2023/01/30 07:57:12;;;;;;;6.38;3.40;;;;;;;;;;5034279;28;20033;-39
2023/01/30 07:59:37;;;;;;;8.40;4.93;;;;;;;;;;5034226;28;20036;-40
2023/01/30 08:02:03;;;;;;;12.85;4.13;;;;;;;;;;5034299;28;20029;-40
2023/01/30 08:04:28;;;;;;;6.90;3.97;;;;;;;;;;5034448;28;20021;-40
2023/01/30 08:06:53;;;;;;;5.20;3.38;;;;;;;;;;5034047;28;20475;-39
2023/01/30 08:09:19;;;;;;;7.78;3.75;;;;;;;;;;5034305;28;20017;-40
2023/01/30 08:11:44;;;;;;;10.48;4.45;;;;;;;;;;5034031;28;20540;-40
2023/01/30 08:14:10;;;;;;;4.32;3.33;;;;;;;;;;5033900;28;20025;-39
2023/01/30 08:16:35;;;;;;;6.20;2.55;;;;;;;;;;5033892;28;20038;-40
2023/01/30 08:19:03;;;;;;;10.85;5.40;;;;;;;;;;5033811;28;20084;-40
2023/01/30 08:21:28;;;;;;;13.77;4.68;;;;;;;;;;5034030;28;20025;-40
2023/01/30 08:23:54;;;;;;;14.15;6.57;;;;;;;;;;5033799;28;20029;-40
2023/01/30 08:26:19;;;;;;;9.75;4.03;;;;;;;;;;5033964;28;20033;-39
2023/01/30 08:28:45;;;;;;;4.20;3.25;;;;;;;;;;5033741;28;20025;-40
2023/01/30 08:31:11;;;;;;;11.63;4.95;;;;;;;;;;5033694;28;20033;-40
2023/01/30 08:33:37;;;;;;;12.27;4.47;;;;;;;;;;5033193;28;20056;-40
2023/01/30 08:36:02;;;;;;;10.55;4.47;;;;;;;;;;5033803;28;20030;-40
2023/01/30 08:38:27;;;;;;;5.93;4.38;;;;;;;;;;5032247;28;20025;-40
2023/01/30 08:40:53;;;;;;;6.20;4.65;;;;;;;;;;5033753;28;20052;-40
2023/01/30 08:43:18;;;;;;;12.77;4.72;;;;;;;;;;5033440;28;20021;-40
2023/01/30 08:45:44;;;;;;;11.75;4.43;;;;;;;;;;5033396;28;20061;-40
2023/01/30 08:48:09;;;;;;;11.15;4.10;;;;;;;;;;5033550;28;20048;-39
2023/01/30 08:50:35;;;;;;;12.25;5.00;;;;;;;;;;5032028;28;20104;-40
2023/01/30 08:53:04;;;;;;;9.88;5.03;;;;;;;;;;5033220;28;20357;-39
2023/01/30 08:55:30;;;;;;;7.18;4.35;;;;;;;;;;5033100;28;20029;-39
2023/01/30 08:57:55;;;;;;;9.98;4.20;;;;;;;;;;5033042;28;20116;-40
2023/01/30 09:00:21;;;;;;;6.43;4.13;;;;;;;;;;5033088;28;20025;-40
2023/01/30 09:02:46;;;;;;;6.70;3.90;;;;;;;;;;5033027;28;20049;-39
2023/01/30 09:05:12;;;;;;;6.07;3.80;;;;;;;;;;5033126;28;20033;-40
2023/01/30 09:07:37;;;;;;;9.45;4.85;;;;;;;;;;5033158;28;20874;-40
2023/01/30 09:10:03;;;;;;;10.10;3.92;;;;;;;;;;5032900;28;20030;-40
2023/01/30 09:12:28;;;;;;;9.50;5.07;;;;;;;;;;5032796;28;20024;-39
2023/01/30 09:14:56;;;;;;;6.10;3.83;;;;;;;;;;5033157;28;20034;-40
2023/01/30 09:17:22;;;;;;;9.20;4.15;;;;;;;;;;5032481;28;20024;-40
2023/01/30 09:19:48;;;;;;;7.05;4.65;;;;;;;;;;5033175;28;20383;-39
2023/01/30 09:22:13;;;;;;;11.25;4.22;;;;;;;;;;5032765;28;20486;-40
2023/01/30 09:24:38;;;;;;;9.90;5.28;;;;;;;;;;5032514;28;20034;-39
2023/01/30 09:27:04;;;;;;;7.72;4.32;;;;;;;;;;5032827;28;20022;-40
2023/01/30 09:29:29;;;;;;;12.98;3.80;;;;;;;;;;5032802;28;20460;-41
2023/01/30 09:31:55;;;;;;;6.95;4.53;;;;;;;;;;5032562;28;20356;-39
2023/01/30 09:34:26;;;;;;;9.63;4.28;;;;;;;;;;5032367;28;20073;-40
2023/01/30 09:36:52;;;;;;;9.90;4.93;;;;;;;;;;5032367;28;20411;-40
2023/01/30 09:39:17;;;;;;;7.68;3.47;;;;;;;;;;5032417;28;20021;-39
2023/01/30 09:41:46;;;;;;;12.77;5.40;;;;;;;;;;5032373;28;20036;-39
2023/01/30 09:44:31;;;;;;;8.27;3.10;;;;;;;;;;5031948;28;20140;-40
2023/01/30 09:47:17;;;;;;;7.70;3.55;;;;;;;;;;5032512;28;20021;-40
2023/01/30 09:49:48;;;;;;;5.00;3.08;;;;;;;;;;5032231;28;20533;-40
2023/01/30 09:52:13;;;;;;;7.68;4.60;;;;;;;;;;5032485;28;20038;-40
2023/01/30 09:54:40;;;;;;;7.55;4.28;;;;;;;;;;5032106;28;20502;-39
2023/01/30 09:57:06;;;;;;;9.32;4.72;;;;;;;;;;5032382;28;20104;-40
2023/01/30 09:59:34;;;;;;;6.20;4.25;;;;;;;;;;5032055;28;20501;-40
2023/01/30 10:02:18;;;;;;;11.55;3.85;;;;;;;;;;5032106;28;20029;-40
2023/01/30 10:04:45;;;;;;;7.90;4.22;;;;;;;;;;5032060;28;20491;-40
2023/01/30 10:07:30;;;;;;;8.55;3.97;;;;;;;;;;5030747;28;20053;-40
2023/01/30 10:10:08;;;;;;;6.82;3.85;;;;;;;;;;5031509;28;20021;-40
2023/01/30 10:12:52;;;;;;;5.47;2.88;;;;;;;;;;5031372;28;20041;-40
2023/01/30 10:15:24;;;;;;;9.90;3.67;;;;;;;;;;5031741;28;20254;-40
2023/01/30 10:17:49;;;;;;;9.02;3.85;;;;;;;;;;5031244;28;20438;-40
2023/01/30 10:20:17;;;;;;;9.45;3.78;;;;;;;;;;5030138;28;20180;-40
2023/01/30 10:23:01;;;;;;;7.05;3.53;;;;;;;;;;5031344;28;20021;-38
2023/01/30 10:25:27;;;;;;;5.78;2.95;;;;;;;;;;5031508;28;20018;-38
2023/01/30 10:27:58;;;;;;;8.63;3.75;;;;;;;;;;5031311;28;20418;-38
2023/01/30 10:30:24;;;;;;;6.57;3.72;;;;;;;;;;5031276;28;20060;-38
2023/01/30 10:32:56;;;;;;;6.95;3.92;;;;;;;;;;5031229;28;20504;-38
2023/01/30 10:35:22;;;;;;;8.50;4.13;;;;;;;;;;5031037;28;20025;-38
2023/01/30 10:37:56;;;;;;;7.75;3.22;;;;;;;;;;5031210;28;20025;-38
2023/01/30 10:40:39;;;;;;;10.30;4.68;;;;;;;;;;5031186;28;20052;-38
2023/01/30 10:43:05;;;;;;;;;;;;;;;;;;5031634;28;20033;-38
2023/01/30 10:45:39;;;;;;;7.30;3.30;;;;;;;;;;5031092;28;20270;-38
2023/01/30 10:48:20;;;;;;;7.70;4.97;;;;;;;;;;5031098;28;20055;-38
2023/01/30 10:50:45;;;;;;;5.43;3.83;;;;;;;;;;5031078;28;20033;-38
2023/01/30 10:53:15;;;;;;;9.00;3.72;;;;;;;;;;5029820;28;20502;-38
2023/01/30 10:55:44;;;;;;;6.78;4.30;;;;;;;;;;5031332;28;20060;-38
2023/01/30 10:58:12;;;;;;;3.22;2.85;;;;;;;;;;5035180;28;20417;-38
2023/01/30 11:00:42;;;;;;;7.40;3.35;;;;;;;;;;5034772;28;20030;-38
2023/01/30 11:03:20;;;;;;;3.78;3.20;;;;;;;;;;5034813;28;20041;-38
2023/01/30 11:05:48;;;;;;;11.82;3.90;;;;;;;;;;5035086;28;20026;-39
2023/01/30 11:08:26;;;;;;;8.20;3.10;;;;;;;;;;5034788;28;20057;-38
2023/01/30 11:10:52;;;;;;;8.82;4.55;;;;;;;;;;5033452;28;20425;-39
2023/01/30 11:13:25;;;;;;;6.88;3.35;;;;;;;;;;5034540;28;20065;-38
2023/01/30 11:15:50;;;;;;;;;;;;;;;;;;5035070;28;20033;-38
2023/01/30 11:18:17;;;;;;;10.80;3.15;;;;;;;;;;5034607;28;20050;-38
2023/01/30 11:20:44;;;;;;;8.27;4.78;;;;;;;;;;5034435;28;20480;-38
2023/01/30 11:23:23;;;;;;;7.43;3.90;;;;;;;;;;5034787;28;20057;-38
2023/01/30 11:25:50;;;;;;;9.95;4.55;;;;;;;;;;5034454;28;20029;-38
2023/01/30 11:28:16;;;;;;;7.25;4.03;;;;;;;;;;5034682;28;20029;-38
2023/01/30 11:30:42;;;;;;;10.85;5.30;;;;;;;;;;5034228;28;20120;-38
2023/01/30 11:33:12;;;;;;;9.98;5.25;;;;;;;;;;5034206;28;20171;-38
2023/01/30 11:35:58;;;;;;;4.57;3.78;;;;;;;;;;5034130;28;20047;-38
2023/01/30 11:38:25;;;;;;;12.82;4.22;;;;;;;;;;5033519;28;20134;-38
2023/01/30 11:41:00;;;;;;;7.75;3.85;;;;;;;;;;5034446;28;20024;-38
2023/01/30 11:43:27;;;;;;;9.15;5.53;;;;;;;;;;5034118;28;20052;-38
2023/01/30 11:45:53;;;;;;;7.22;4.47;;;;;;;;;;5034037;28;20021;-38
2023/01/30 11:48:20;;;;;;;12.27;4.43;;;;;;;;;;5034249;28;20032;-38
2023/01/30 11:50:48;;;;;;;4.30;2.50;;;;;;;;;;5034011;28;20025;-38
2023/01/30 11:53:17;;;;;;;8.27;3.92;;;;;;;;;;5033846;28;20052;-38
2023/01/30 11:55:44;;;;;;;10.88;4.97;;;;;;;;;;5033837;28;20010;-38
2023/01/30 11:58:10;;;;;;;5.32;3.72;;;;;;;;;;5033846;28;20034;-38
2023/01/30 12:00:40;;;;;;;14.30;3.05;;;;;;;;;;5033932;28;20025;-38
2023/01/30 12:03:09;;;;;;;5.22;4.05;;;;;;;;;;5033721;28;20034;-39
2023/01/30 12:05:41;;;;;;;8.57;4.18;;;;;;;;;;5034143;28;20095;-38
2023/01/30 12:08:19;;;;;;;9.23;4.45;;;;;;;;;;5032867;28;20044;-38
2023/01/30 12:10:47;;;;;;;9.13;4.30;;;;;;;;;;5033523;28;20049;-38
2023/01/30 12:13:28;;;;;;;14.23;5.20;;;;;;;;;;5033493;28;20039;-38
2023/01/30 12:16:03;;;;;;;9.85;6.43;;;;;;;;;;5033733;28;20029;-38
2023/01/30 12:18:31;;;;;;;25.92;5.03;;;;;;;;;;5033163;28;20176;-38
2023/01/30 12:21:01;;;;;;;11.68;4.90;;;;;;;;;;5033610;28;20416;-38
2023/01/30 12:23:26;;;;;;;7.38;3.33;;;;;;;;;;5033606;28;20037;-38
2023/01/30 12:26:06;;;;;;;7.45;4.07;;;;;;;;;;5033640;28;20048;-38
2023/01/30 12:28:53;;;;;;;13.32;5.07;;;;;;;;;;5033433;28;20115;-38
2023/01/30 12:31:39;;;;;;;6.63;3.95;;;;;;;;;;5033470;28;20033;-38
2023/01/30 12:34:07;;;;;;;9.32;3.97;;;;;;;;;;5022430;28;20080;-38
2023/01/30 12:36:51;;;;;;;6.93;3.45;;;;;;;;;;5032932;28;20052;-38
2023/01/30 12:39:35;;;;;;;10.10;6.03;;;;;;;;;;5033181;28;20045;-38
2023/01/30 12:42:10;;;;;;;5.95;3.75;;;;;;;;;;5033337;28;20106;-38
2023/01/30 12:44:44;;;;;;;10.57;4.80;;;;;;;;;;5033134;28;20033;-38
2023/01/30 12:47:18;;;;;;;19.67;5.88;;;;;;;;;;5033160;28;20037;-38
2023/01/30 12:49:54;;;;;;;5.88;3.92;;;;;;;;;;5031603;28;20029;-38
2023/01/30 12:52:24;;;;;;;8.90;3.78;;;;;;;;;;5064879;28;20357;-38
2023/01/30 12:55:04;;;;;;;13.70;6.82;;;;;;;;;;5032706;28;20032;-38
2023/01/30 12:57:40;;;;;;;12.68;4.47;;;;;;;;;;5047867;28;20443;-45
2023/01/30 13:00:14;;;;;;;12.15;6.32;;;;;;;;;;5032644;28;20044;-38
2023/01/30 13:02:43;;;;;;;11.20;5.93;;;;;;;;;;5032831;28;20029;-38
2023/01/30 13:05:27;;;;;;;12.02;6.55;;;;;;;;;;5032560;28;20025;-38
2023/01/30 13:07:53;;;;;;;11.88;5.88;;;;;;;;;;5032517;28;20617;-38
2023/01/30 13:10:18;;;;;;;11.00;5.78;;;;;;;;;;5032609;28;20048;-38
2023/01/30 13:12:59;;;;;;;12.95;4.60;;;;;;;;;;5030773;28;20037;-38
2023/01/30 13:15:28;;;;;;;12.68;6.63;;;;;;;;;;5032276;28;20087;-38
2023/01/30 13:18:14;;;;;;;13.32;5.88;;;;;;;;;;5032078;28;20128;-38
2023/01/30 13:20:49;;;;;;;14.40;4.72;;;;;;;;;;5031313;28;20029;-38
2023/01/30 13:23:47;;;;;;;9.93;5.45;;;;;;;;;;5032380;28;20143;-38
2023/01/30 13:26:15;;;;;;;9.82;5.68;;;;;;;;;;4998011;28;20037;-38
2023/01/30 13:28:40;;;;;;;12.55;6.30;;;;;;;;;;5032393;28;20021;-40
2023/01/30 13:31:08;;;;;;;20.00;6.95;;;;;;;;;;5032132;28;20530;-40
2023/01/30 13:33:36;;;;;;;9.10;4.20;;;;;;;;;;5031882;28;20037;-38
2023/01/30 13:36:19;;;;;;;14.88;5.65;;;;;;;;;;5030896;28;20034;-38
2023/01/30 13:38:44;;;;;;;;;;;;;;;;;;5032335;28;20404;-38
2023/01/30 13:41:12;;;;;;;13.52;5.82;;;;;;;;;;5032212;28;19913;-38
2023/01/30 13:43:40;;;;;;;11.95;4.03;;;;;;;;;;5031751;28;20116;-38
2023/01/30 13:46:07;;;;;;;13.20;5.30;;;;;;;;;;5032172;28;20033;-38
2023/01/30 13:48:44;;;;;;;16.85;7.68;;;;;;;;;;5031709;28;20045;-38
2023/01/30 13:51:09;;;;;;;20.08;6.57;;;;;;;;;;5032100;28;20126;-38
2023/01/30 13:53:38;;;;;;;8.43;4.70;;;;;;;;;;5031839;28;20025;-40
2023/01/30 13:56:16;;;;;;;17.58;7.35;;;;;;;;;;5031603;28;20034;-40
2023/01/30 13:58:42;;;;;;;13.07;5.88;;;;;;;;;;5031663;28;20040;-40
2023/01/30 14:01:08;;;;;;;14.75;6.00;;;;;;;;;;5031856;28;20494;-40
2023/01/30 14:03:34;;;;;;;11.30;5.60;;;;;;;;;;5031505;28;20036;-40
2023/01/30 14:06:02;;;;;;;10.68;6.47;;;;;;;;;;5031627;28;20017;-40
2023/01/30 14:08:40;;;;;;;23.35;6.10;;;;;;;;;;5031538;28;20052;-40
2023/01/30 14:11:41;;;;;;;12.88;6.90;;;;;;;;;;5031531;28;20471;-40
2023/01/30 14:14:19;;;;;;;15.98;7.63;;;;;;;;;;4970334;28;20216;-38
2023/01/30 14:16:45;;;;;;;9.85;4.88;;;;;;;;;;5023566;28;20124;-38
2023/01/30 14:19:27;;;;;;;12.18;5.22;;;;;;;;;;5031287;28;20045;-38
2023/01/30 14:21:54;;;;;;;;;;;;;;;;;;5031820;28;20037;-38
2023/01/30 14:24:23;;;;;;;16.20;5.28;;;;;;;;;;5031678;28;20390;-38
2023/01/30 14:26:49;;;;;;;10.50;5.05;;;;;;;;;;5031333;28;20061;-39
2023/01/30 14:29:33;;;;;;;12.02;5.28;;;;;;;;;;5031382;28;20045;-38
2023/01/30 14:31:58;;;;;;;13.32;7.10;;;;;;;;;;5034318;28;20044;-38
2023/01/30 14:34:37;;;;;;;10.77;5.85;;;;;;;;;;5035270;28;20049;-40
2023/01/30 14:37:23;;;;;;;11.77;6.20;;;;;;;;;;5035249;28;20033;-40
2023/01/30 14:39:51;;;;;;;3.20;2.83;;;;;;;;;;5035303;28;20037;-40
2023/01/30 14:42:27;;;;;;;13.07;7.88;;;;;;;;;;5035307;28;20021;-40
2023/01/30 14:44:57;;;;;;;15.52;6.43;;;;;;;;;;5035182;28;20629;-40
2023/01/30 14:47:23;;;;;;;15.20;5.80;;;;;;;;;;5035423;28;20357;-38
2023/01/30 14:49:49;;;;;;;15.93;6.93;;;;;;;;;;5033836;28;20029;-38
2023/01/30 14:52:36;;;;;;;15.77;6.80;;;;;;;;;;5035134;28;20036;-40
2023/01/30 14:55:03;;;;;;;14.30;5.55;;;;;;;;;;5035012;28;20037;-38
2023/01/30 14:57:33;;;;;;;14.75;7.05;;;;;;;;;;5034979;28;20356;-38